sensor_id;sensor_type;location;lat;lon;timestamp;P1;durP1;ratioP1;P2;durP2;ratioP2
22525;SDS011;11429;50.842;4.386;2022-11-15T00:00:54;29.15;;;21.77;;
22525;SDS011;11429;50.842;4.386;2022-11-15T00:03:25;30.08;;;22.42;;
22525;SDS011;11429;50.842;4.386;2022-11-15T00:05:51;30.52;;;23.15;;
22525;SDS011;11429;50.842;4.386;2022-11-15T00:08:17;28.80;;;23.30;;
22525;SDS011;11429;50.842;4.386;2022-11-15T00:10:43;30.73;;;22.60;;
22525;SDS011;11429;50.842;4.386;2022-11-15T00:13:19;32.65;;;22.90;;
22525;SDS011;11429;50.842;4.386;2022-11-15T00:15:46;29.42;;;23.38;;
22525;SDS011;11429;50.842;4.386;2022-11-15T00:18:13;29.38;;;23.20;;
22525;SDS011;11429;50.842;4.386;2022-11-15T00:20:40;29.25;;;23.80;;
22525;SDS011;11429;50.842;4.386;2022-11-15T00:23:06;31.67;;;23.67;;
22525;SDS011;11429;50.842;4.386;2022-11-15T00:25:32;29.50;;;23.20;;
22525;SDS011;11429;50.842;4.386;2022-11-15T00:27:59;29.55;;;22.27;;
22525;SDS011;11429;50.842;4.386;2022-11-15T00:30:25;31.75;;;23.63;;
22525;SDS011;11429;50.842;4.386;2022-11-15T00:32:51;29.60;;;24.77;;
22525;SDS011;11429;50.842;4.386;2022-11-15T00:35:17;33.17;;;23.67;;
22525;SDS011;11429;50.842;4.386;2022-11-15T00:37:43;34.20;;;25.23;;
22525;SDS011;11429;50.842;4.386;2022-11-15T00:40:09;30.50;;;24.08;;
22525;SDS011;11429;50.842;4.386;2022-11-15T00:42:35;34.17;;;24.75;;
22525;SDS011;11429;50.842;4.386;2022-11-15T00:45:01;32.60;;;24.75;;
22525;SDS011;11429;50.842;4.386;2022-11-15T00:47:27;35.40;;;24.05;;
22525;SDS011;11429;50.842;4.386;2022-11-15T00:49:52;32.97;;;25.40;;
22525;SDS011;11429;50.842;4.386;2022-11-15T00:52:18;34.00;;;24.85;;
22525;SDS011;11429;50.842;4.386;2022-11-15T00:54:44;34.35;;;25.27;;
22525;SDS011;11429;50.842;4.386;2022-11-15T00:57:09;33.15;;;25.55;;
22525;SDS011;11429;50.842;4.386;2022-11-15T00:59:35;37.20;;;24.75;;
22525;SDS011;11429;50.842;4.386;2022-11-15T01:02:01;32.33;;;25.25;;
22525;SDS011;11429;50.842;4.386;2022-11-15T01:04:27;38.00;;;25.83;;
22525;SDS011;11429;50.842;4.386;2022-11-15T01:06:52;35.17;;;27.08;;
22525;SDS011;11429;50.842;4.386;2022-11-15T01:09:18;32.33;;;26.35;;
22525;SDS011;11429;50.842;4.386;2022-11-15T01:11:44;43.38;;;28.33;;
22525;SDS011;11429;50.842;4.386;2022-11-15T01:14:10;39.03;;;28.05;;
22525;SDS011;11429;50.842;4.386;2022-11-15T01:16:35;37.75;;;28.08;;
22525;SDS011;11429;50.842;4.386;2022-11-15T01:19:01;41.10;;;27.77;;
22525;SDS011;11429;50.842;4.386;2022-11-15T01:21:27;38.85;;;27.75;;
22525;SDS011;11429;50.842;4.386;2022-11-15T01:23:56;40.92;;;28.02;;
22525;SDS011;11429;50.842;4.386;2022-11-15T01:26:22;37.80;;;27.50;;
22525;SDS011;11429;50.842;4.386;2022-11-15T01:28:49;37.33;;;28.70;;
22525;SDS011;11429;50.842;4.386;2022-11-15T01:31:16;36.95;;;27.58;;
22525;SDS011;11429;50.842;4.386;2022-11-15T01:33:44;37.38;;;27.10;;
22525;SDS011;11429;50.842;4.386;2022-11-15T01:36:11;36.30;;;25.92;;
22525;SDS011;11429;50.842;4.386;2022-11-15T01:38:38;33.13;;;27.52;;
22525;SDS011;11429;50.842;4.386;2022-11-15T01:41:04;35.67;;;25.83;;
22525;SDS011;11429;50.842;4.386;2022-11-15T01:43:31;33.05;;;25.63;;
22525;SDS011;11429;50.842;4.386;2022-11-15T01:46:45;31.23;;;23.95;;
22525;SDS011;11429;50.842;4.386;2022-11-15T01:48:44;29.42;;;22.83;;
22525;SDS011;11429;50.842;4.386;2022-11-15T01:51:11;32.95;;;23.73;;
22525;SDS011;11429;50.842;4.386;2022-11-15T01:53:39;28.73;;;22.05;;
22525;SDS011;11429;50.842;4.386;2022-11-15T01:56:10;28.90;;;21.90;;
22525;SDS011;11429;50.842;4.386;2022-11-15T01:58:43;30.90;;;22.05;;
22525;SDS011;11429;50.842;4.386;2022-11-15T02:01:11;26.85;;;21.23;;
22525;SDS011;11429;50.842;4.386;2022-11-15T02:03:39;28.13;;;19.42;;
22525;SDS011;11429;50.842;4.386;2022-11-15T02:06:27;28.88;;;20.35;;
22525;SDS011;11429;50.842;4.386;2022-11-15T02:08:55;27.75;;;20.35;;
22525;SDS011;11429;50.842;4.386;2022-11-15T02:11:22;24.23;;;19.17;;
22525;SDS011;11429;50.842;4.386;2022-11-15T02:13:47;24.90;;;20.10;;
22525;SDS011;11429;50.842;4.386;2022-11-15T02:18:45;27.90;;;19.65;;
22525;SDS011;11429;50.842;4.386;2022-11-15T02:21:39;27.02;;;20.27;;
22525;SDS011;11429;50.842;4.386;2022-11-15T02:35:32;30.15;;;20.35;;
22525;SDS011;11429;50.842;4.386;2022-11-15T02:38:17;25.55;;;20.20;;
22525;SDS011;11429;50.842;4.386;2022-11-15T02:40:55;29.85;;;20.75;;
22525;SDS011;11429;50.842;4.386;2022-11-15T02:46:34;25.98;;;18.85;;
22525;SDS011;11429;50.842;4.386;2022-11-15T02:49:22;29.80;;;19.50;;
22525;SDS011;11429;50.842;4.386;2022-11-15T02:51:50;26.88;;;19.65;;
22525;SDS011;11429;50.842;4.386;2022-11-15T02:54:21;26.05;;;19.50;;
22525;SDS011;11429;50.842;4.386;2022-11-15T02:56:49;32.03;;;19.25;;
22525;SDS011;11429;50.842;4.386;2022-11-15T03:10:28;21.42;;;15.10;;
22525;SDS011;11429;50.842;4.386;2022-11-15T03:16:09;22.33;;;14.50;;
22525;SDS011;11429;50.842;4.386;2022-11-15T03:18:46;18.85;;;14.27;;
22525;SDS011;11429;50.842;4.386;2022-11-15T03:21:17;18.42;;;14.00;;
22525;SDS011;11429;50.842;4.386;2022-11-15T03:23:44;22.27;;;14.50;;
22525;SDS011;11429;50.842;4.386;2022-11-15T03:26:14;22.60;;;13.75;;
22525;SDS011;11429;50.842;4.386;2022-11-15T03:29:42;18.83;;;12.70;;
22525;SDS011;11429;50.842;4.386;2022-11-15T03:31:42;14.77;;;11.40;;
22525;SDS011;11429;50.842;4.386;2022-11-15T03:34:19;20.73;;;11.70;;
22525;SDS011;11429;50.842;4.386;2022-11-15T03:36:46;16.67;;;11.57;;
22525;SDS011;11429;50.842;4.386;2022-11-15T03:39:12;18.75;;;11.95;;
22525;SDS011;11429;50.842;4.386;2022-11-15T03:41:50;18.05;;;11.55;;
22525;SDS011;11429;50.842;4.386;2022-11-15T03:44:42;18.45;;;11.45;;
22525;SDS011;11429;50.842;4.386;2022-11-15T03:47:15;19.88;;;10.50;;
22525;SDS011;11429;50.842;4.386;2022-11-15T03:49:52;15.70;;;10.50;;
22525;SDS011;11429;50.842;4.386;2022-11-15T03:52:24;14.50;;;9.80;;
22525;SDS011;11429;50.842;4.386;2022-11-15T03:54:50;14.82;;;9.48;;
22525;SDS011;11429;50.842;4.386;2022-11-15T03:57:20;12.25;;;9.30;;
22525;SDS011;11429;50.842;4.386;2022-11-15T03:59:47;13.40;;;8.57;;
22525;SDS011;11429;50.842;4.386;2022-11-15T04:02:13;13.63;;;9.38;;
22525;SDS011;11429;50.842;4.386;2022-11-15T04:04:39;16.10;;;9.10;;
22525;SDS011;11429;50.842;4.386;2022-11-15T04:07:04;13.80;;;9.10;;
22525;SDS011;11429;50.842;4.386;2022-11-15T04:09:30;11.70;;;8.73;;
22525;SDS011;11429;50.842;4.386;2022-11-15T04:11:57;18.33;;;9.13;;
22525;SDS011;11429;50.842;4.386;2022-11-15T04:14:23;11.95;;;8.02;;
22525;SDS011;11429;50.842;4.386;2022-11-15T04:16:48;11.73;;;8.20;;
22525;SDS011;11429;50.842;4.386;2022-11-15T04:19:14;11.23;;;7.88;;
22525;SDS011;11429;50.842;4.386;2022-11-15T04:21:58;14.48;;;7.97;;
22525;SDS011;11429;50.842;4.386;2022-11-15T04:24:42;12.90;;;8.18;;
22525;SDS011;11429;50.842;4.386;2022-11-15T04:27:09;15.00;;;7.63;;
22525;SDS011;11429;50.842;4.386;2022-11-15T04:29:37;13.93;;;7.25;;
22525;SDS011;11429;50.842;4.386;2022-11-15T04:32:04;12.23;;;6.93;;
22525;SDS011;11429;50.842;4.386;2022-11-15T04:34:31;11.15;;;7.65;;
22525;SDS011;11429;50.842;4.386;2022-11-15T04:36:57;11.20;;;7.53;;
22525;SDS011;11429;50.842;4.386;2022-11-15T04:39:40;13.27;;;7.25;;
22525;SDS011;11429;50.842;4.386;2022-11-15T04:42:06;12.43;;;7.05;;
22525;SDS011;11429;50.842;4.386;2022-11-15T04:44:33;12.82;;;7.68;;
22525;SDS011;11429;50.842;4.386;2022-11-15T04:46:58;11.35;;;7.55;;
22525;SDS011;11429;50.842;4.386;2022-11-15T04:49:24;10.32;;;7.05;;
22525;SDS011;11429;50.842;4.386;2022-11-15T04:51:50;12.85;;;7.22;;
22525;SDS011;11429;50.842;4.386;2022-11-15T04:54:15;16.02;;;7.22;;
22525;SDS011;11429;50.842;4.386;2022-11-15T04:56:42;9.75;;;6.63;;
22525;SDS011;11429;50.842;4.386;2022-11-15T04:59:07;12.50;;;7.40;;
22525;SDS011;11429;50.842;4.386;2022-11-15T05:01:33;15.45;;;6.70;;
22525;SDS011;11429;50.842;4.386;2022-11-15T05:03:59;13.80;;;6.57;;
22525;SDS011;11429;50.842;4.386;2022-11-15T05:06:43;12.02;;;6.25;;
22525;SDS011;11429;50.842;4.386;2022-11-15T05:09:08;13.00;;;7.88;;
22525;SDS011;11429;50.842;4.386;2022-11-15T05:11:34;10.63;;;6.22;;
22525;SDS011;11429;50.842;4.386;2022-11-15T05:14:00;12.77;;;5.88;;
22525;SDS011;11429;50.842;4.386;2022-11-15T05:16:25;14.48;;;5.95;;
22525;SDS011;11429;50.842;4.386;2022-11-15T05:18:52;11.15;;;5.65;;
22525;SDS011;11429;50.842;4.386;2022-11-15T05:21:19;10.68;;;6.20;;
22525;SDS011;11429;50.842;4.386;2022-11-15T05:23:45;11.18;;;5.80;;
22525;SDS011;11429;50.842;4.386;2022-11-15T05:26:11;11.98;;;5.78;;
22525;SDS011;11429;50.842;4.386;2022-11-15T05:28:38;11.45;;;5.40;;
22525;SDS011;11429;50.842;4.386;2022-11-15T05:31:05;12.02;;;5.22;;
22525;SDS011;11429;50.842;4.386;2022-11-15T05:33:33;12.13;;;5.40;;
22525;SDS011;11429;50.842;4.386;2022-11-15T05:36:24;11.13;;;5.18;;
22525;SDS011;11429;50.842;4.386;2022-11-15T05:39:03;7.90;;;4.65;;
22525;SDS011;11429;50.842;4.386;2022-11-15T05:41:49;10.98;;;4.47;;
22525;SDS011;11429;50.842;4.386;2022-11-15T05:44:22;15.25;;;4.85;;
22525;SDS011;11429;50.842;4.386;2022-11-15T05:46:49;8.73;;;4.70;;
22525;SDS011;11429;50.842;4.386;2022-11-15T05:49:19;10.45;;;5.00;;
22525;SDS011;11429;50.842;4.386;2022-11-15T05:51:47;7.68;;;4.93;;
22525;SDS011;11429;50.842;4.386;2022-11-15T05:54:14;10.95;;;4.80;;
22525;SDS011;11429;50.842;4.386;2022-11-15T05:56:41;9.82;;;5.57;;
22525;SDS011;11429;50.842;4.386;2022-11-15T05:59:07;10.63;;;5.22;;
22525;SDS011;11429;50.842;4.386;2022-11-15T06:01:34;9.32;;;4.85;;
22525;SDS011;11429;50.842;4.386;2022-11-15T06:04:00;10.88;;;4.57;;
22525;SDS011;11429;50.842;4.386;2022-11-15T06:06:27;10.77;;;5.10;;
22525;SDS011;11429;50.842;4.386;2022-11-15T06:08:53;9.13;;;4.97;;
22525;SDS011;11429;50.842;4.386;2022-11-15T06:11:19;10.85;;;5.30;;
22525;SDS011;11429;50.842;4.386;2022-11-15T06:13:45;15.25;;;5.47;;
22525;SDS011;11429;50.842;4.386;2022-11-15T06:16:10;11.13;;;5.30;;
22525;SDS011;11429;50.842;4.386;2022-11-15T06:18:36;12.55;;;4.93;;
22525;SDS011;11429;50.842;4.386;2022-11-15T06:21:02;11.85;;;4.40;;
22525;SDS011;11429;50.842;4.386;2022-11-15T06:23:30;14.02;;;4.90;;
22525;SDS011;11429;50.842;4.386;2022-11-15T06:25:57;9.95;;;4.97;;
22525;SDS011;11429;50.842;4.386;2022-11-15T06:28:27;9.88;;;3.88;;
22525;SDS011;11429;50.842;4.386;2022-11-15T06:31:02;13.80;;;4.93;;
22525;SDS011;11429;50.842;4.386;2022-11-15T06:33:32;8.93;;;4.38;;
22525;SDS011;11429;50.842;4.386;2022-11-15T06:36:01;12.93;;;4.40;;
22525;SDS011;11429;50.842;4.386;2022-11-15T06:38:31;11.40;;;4.30;;
22525;SDS011;11429;50.842;4.386;2022-11-15T06:41:01;10.52;;;4.82;;
22525;SDS011;11429;50.842;4.386;2022-11-15T06:43:31;11.00;;;4.80;;
22525;SDS011;11429;50.842;4.386;2022-11-15T06:45:58;14.52;;;4.80;;
22525;SDS011;11429;50.842;4.386;2022-11-15T06:48:24;11.00;;;5.03;;
22525;SDS011;11429;50.842;4.386;2022-11-15T06:50:51;8.82;;;5.13;;
22525;SDS011;11429;50.842;4.386;2022-11-15T06:53:17;12.85;;;5.25;;
22525;SDS011;11429;50.842;4.386;2022-11-15T06:55:43;10.82;;;4.65;;
22525;SDS011;11429;50.842;4.386;2022-11-15T06:58:09;10.00;;;4.97;;
22525;SDS011;11429;50.842;4.386;2022-11-15T07:00:35;10.88;;;5.55;;
22525;SDS011;11429;50.842;4.386;2022-11-15T07:03:01;11.27;;;5.07;;
22525;SDS011;11429;50.842;4.386;2022-11-15T07:05:27;13.48;;;4.97;;
22525;SDS011;11429;50.842;4.386;2022-11-15T07:07:53;9.50;;;4.70;;
22525;SDS011;11429;50.842;4.386;2022-11-15T07:10:22;8.45;;;4.57;;
22525;SDS011;11429;50.842;4.386;2022-11-15T07:12:49;8.57;;;4.63;;
22525;SDS011;11429;50.842;4.386;2022-11-15T07:15:16;11.82;;;4.60;;
22525;SDS011;11429;50.842;4.386;2022-11-15T07:17:42;11.20;;;5.13;;
22525;SDS011;11429;50.842;4.386;2022-11-15T07:20:08;13.38;;;4.80;;
22525;SDS011;11429;50.842;4.386;2022-11-15T07:22:34;10.60;;;4.80;;
22525;SDS011;11429;50.842;4.386;2022-11-15T07:25:00;10.07;;;4.88;;
22525;SDS011;11429;50.842;4.386;2022-11-15T07:27:26;10.65;;;4.47;;
22525;SDS011;11429;50.842;4.386;2022-11-15T07:29:51;13.85;;;5.28;;
22525;SDS011;11429;50.842;4.386;2022-11-15T07:32:17;7.45;;;4.78;;
22525;SDS011;11429;50.842;4.386;2022-11-15T07:34:43;9.55;;;4.90;;
22525;SDS011;11429;50.842;4.386;2022-11-15T07:37:10;9.02;;;4.90;;
22525;SDS011;11429;50.842;4.386;2022-11-15T07:39:36;9.18;;;4.72;;
22525;SDS011;11429;50.842;4.386;2022-11-15T07:42:01;8.30;;;5.00;;
22525;SDS011;11429;50.842;4.386;2022-11-15T07:44:45;9.50;;;4.28;;
22525;SDS011;11429;50.842;4.386;2022-11-15T07:47:11;8.07;;;4.20;;
22525;SDS011;11429;50.842;4.386;2022-11-15T07:49:37;6.65;;;4.15;;
22525;SDS011;11429;50.842;4.386;2022-11-15T07:52:03;10.65;;;4.88;;
22525;SDS011;11429;50.842;4.386;2022-11-15T07:54:29;7.18;;;4.15;;
22525;SDS011;11429;50.842;4.386;2022-11-15T07:56:54;9.82;;;4.22;;
22525;SDS011;11429;50.842;4.386;2022-11-15T07:59:20;10.55;;;4.13;;
22525;SDS011;11429;50.842;4.386;2022-11-15T08:01:46;10.18;;;4.18;;
22525;SDS011;11429;50.842;4.386;2022-11-15T08:04:11;5.72;;;3.92;;
22525;SDS011;11429;50.842;4.386;2022-11-15T08:06:37;8.82;;;4.55;;
22525;SDS011;11429;50.842;4.386;2022-11-15T08:09:03;10.60;;;4.43;;
22525;SDS011;11429;50.842;4.386;2022-11-15T08:11:29;9.93;;;4.68;;
22525;SDS011;11429;50.842;4.386;2022-11-15T08:13:54;9.20;;;4.13;;
22525;SDS011;11429;50.842;4.386;2022-11-15T08:16:20;10.75;;;3.72;;
22525;SDS011;11429;50.842;4.386;2022-11-15T08:18:46;6.72;;;3.50;;
22525;SDS011;11429;50.842;4.386;2022-11-15T08:21:12;8.50;;;3.47;;
22525;SDS011;11429;50.842;4.386;2022-11-15T08:23:42;6.90;;;3.00;;
22525;SDS011;11429;50.842;4.386;2022-11-15T08:26:09;9.18;;;3.35;;
22525;SDS011;11429;50.842;4.386;2022-11-15T08:28:34;6.07;;;2.85;;
22525;SDS011;11429;50.842;4.386;2022-11-15T08:31:01;4.50;;;2.35;;
22525;SDS011;11429;50.842;4.386;2022-11-15T08:33:27;6.60;;;2.80;;
22525;SDS011;11429;50.842;4.386;2022-11-15T08:35:55;7.65;;;2.67;;
22525;SDS011;11429;50.842;4.386;2022-11-15T08:38:22;5.45;;;2.20;;
22525;SDS011;11429;50.842;4.386;2022-11-15T08:40:48;10.88;;;2.83;;
22525;SDS011;11429;50.842;4.386;2022-11-15T08:43:15;6.60;;;2.30;;
22525;SDS011;11429;50.842;4.386;2022-11-15T08:45:41;10.45;;;3.05;;
22525;SDS011;11429;50.842;4.386;2022-11-15T08:48:06;6.97;;;2.03;;
22525;SDS011;11429;50.842;4.386;2022-11-15T08:50:32;4.90;;;1.95;;
22525;SDS011;11429;50.842;4.386;2022-11-15T08:52:57;9.55;;;2.17;;
22525;SDS011;11429;50.842;4.386;2022-11-15T08:55:29;8.82;;;2.55;;
22525;SDS011;11429;50.842;4.386;2022-11-15T08:57:57;8.95;;;2.25;;
22525;SDS011;11429;50.842;4.386;2022-11-15T09:00:23;6.07;;;2.30;;
22525;SDS011;11429;50.842;4.386;2022-11-15T09:02:49;5.82;;;2.08;;
22525;SDS011;11429;50.842;4.386;2022-11-15T09:05:14;14.10;;;2.75;;
22525;SDS011;11429;50.842;4.386;2022-11-15T09:07:43;6.47;;;1.83;;
22525;SDS011;11429;50.842;4.386;2022-11-15T09:10:09;5.32;;;1.63;;
22525;SDS011;11429;50.842;4.386;2022-11-15T09:12:35;5.88;;;1.77;;
22525;SDS011;11429;50.842;4.386;2022-11-15T09:15:00;4.72;;;1.60;;
22525;SDS011;11429;50.842;4.386;2022-11-15T09:17:26;8.13;;;1.77;;
22525;SDS011;11429;50.842;4.386;2022-11-15T09:19:52;7.50;;;1.48;;
22525;SDS011;11429;50.842;4.386;2022-11-15T09:22:17;4.30;;;1.38;;
22525;SDS011;11429;50.842;4.386;2022-11-15T09:24:43;10.38;;;2.13;;
22525;SDS011;11429;50.842;4.386;2022-11-15T09:27:09;8.25;;;1.80;;
22525;SDS011;11429;50.842;4.386;2022-11-15T09:29:34;10.85;;;1.73;;
22525;SDS011;11429;50.842;4.386;2022-11-15T09:32:01;8.30;;;1.95;;
22525;SDS011;11429;50.842;4.386;2022-11-15T09:34:27;8.68;;;2.17;;
22525;SDS011;11429;50.842;4.386;2022-11-15T09:36:53;6.60;;;1.55;;
22525;SDS011;11429;50.842;4.386;2022-11-15T09:39:18;5.38;;;1.27;;
22525;SDS011;11429;50.842;4.386;2022-11-15T09:47:27;4.55;;;1.15;;
22525;SDS011;11429;50.842;4.386;2022-11-15T09:50:14;7.65;;;1.38;;
22525;SDS011;11429;50.842;4.386;2022-11-15T09:52:43;6.20;;;1.75;;
22525;SDS011;11429;50.842;4.386;2022-11-15T09:55:10;10.80;;;1.70;;
22525;SDS011;11429;50.842;4.386;2022-11-15T09:57:55;5.65;;;1.48;;
22525;SDS011;11429;50.842;4.386;2022-11-15T10:00:38;8.40;;;2.00;;
22525;SDS011;11429;50.842;4.386;2022-11-15T10:03:12;9.48;;;1.55;;
22525;SDS011;11429;50.842;4.386;2022-11-15T10:05:44;6.15;;;1.38;;
22525;SDS011;11429;50.842;4.386;2022-11-15T10:11:00;7.88;;;1.40;;
22525;SDS011;11429;50.842;4.386;2022-11-15T10:13:35;11.18;;;1.60;;
22525;SDS011;11429;50.842;4.386;2022-11-15T10:24:27;7.28;;;1.30;;
22525;SDS011;11429;50.842;4.386;2022-11-15T10:26:58;5.15;;;1.20;;
22525;SDS011;11429;50.842;4.386;2022-11-15T10:29:25;8.27;;;1.63;;
22525;SDS011;11429;50.842;4.386;2022-11-15T10:31:51;8.70;;;1.50;;
22525;SDS011;11429;50.842;4.386;2022-11-15T10:34:20;9.77;;;1.65;;
22525;SDS011;11429;50.842;4.386;2022-11-15T10:36:54;10.57;;;1.48;;
22525;SDS011;11429;50.842;4.386;2022-11-15T10:39:22;9.45;;;1.45;;
22525;SDS011;11429;50.842;4.386;2022-11-15T10:41:49;10.77;;;1.85;;
22525;SDS011;11429;50.842;4.386;2022-11-15T10:44:30;10.10;;;1.67;;
22525;SDS011;11429;50.842;4.386;2022-11-15T10:49:31;8.68;;;1.45;;
22525;SDS011;11429;50.842;4.386;2022-11-15T10:52:14;9.07;;;1.38;;
22525;SDS011;11429;50.842;4.386;2022-11-15T10:54:45;6.88;;;1.50;;
22525;SDS011;11429;50.842;4.386;2022-11-15T10:57:30;7.20;;;1.25;;
22525;SDS011;11429;50.842;4.386;2022-11-15T11:00:07;9.15;;;1.40;;
22525;SDS011;11429;50.842;4.386;2022-11-15T11:02:56;8.00;;;1.35;;
22525;SDS011;11429;50.842;4.386;2022-11-15T11:08:09;5.25;;;1.20;;
22525;SDS011;11429;50.842;4.386;2022-11-15T11:10:53;8.15;;;1.52;;
22525;SDS011;11429;50.842;4.386;2022-11-15T11:13:25;6.80;;;1.80;;
22525;SDS011;11429;50.842;4.386;2022-11-15T11:21:43;6.30;;;2.35;;
22525;SDS011;11429;50.842;4.386;2022-11-15T11:37:35;5.45;;;1.67;;
22525;SDS011;11429;50.842;4.386;2022-11-15T11:42:51;7.00;;;1.55;;
22525;SDS011;11429;50.842;4.386;2022-11-15T11:50:36;5.25;;;1.23;;
22525;SDS011;11429;50.842;4.386;2022-11-15T11:53:25;7.05;;;1.10;;
22525;SDS011;11429;50.842;4.386;2022-11-15T11:56:19;4.07;;;1.30;;
22525;SDS011;11429;50.842;4.386;2022-11-15T11:58:53;5.28;;;1.48;;
22525;SDS011;11429;50.842;4.386;2022-11-15T12:04:44;5.53;;;0.80;;
22525;SDS011;11429;50.842;4.386;2022-11-15T12:06:54;9.02;;;1.30;;
22525;SDS011;11429;50.842;4.386;2022-11-15T12:12:21;7.25;;;1.50;;
22525;SDS011;11429;50.842;4.386;2022-11-15T12:14:55;6.40;;;1.20;;
22525;SDS011;11429;50.842;4.386;2022-11-15T12:17:26;5.75;;;1.30;;
22525;SDS011;11429;50.842;4.386;2022-11-15T12:19:57;6.25;;;1.23;;
22525;SDS011;11429;50.842;4.386;2022-11-15T12:22:33;4.97;;;1.20;;
22525;SDS011;11429;50.842;4.386;2022-11-15T12:30:20;6.93;;;2.05;;
22525;SDS011;11429;50.842;4.386;2022-11-15T12:37:54;3.05;;;1.25;;
22525;SDS011;11429;50.842;4.386;2022-11-15T12:41:13;4.22;;;0.95;;
22525;SDS011;11429;50.842;4.386;2022-11-15T12:43:38;2.85;;;0.93;;
22525;SDS011;11429;50.842;4.386;2022-11-15T12:46:09;4.57;;;0.98;;
22525;SDS011;11429;50.842;4.386;2022-11-15T12:48:49;7.57;;;1.48;;
22525;SDS011;11429;50.842;4.386;2022-11-15T12:51:18;6.60;;;1.52;;
22525;SDS011;11429;50.842;4.386;2022-11-15T12:53:46;5.47;;;1.30;;
22525;SDS011;11429;50.842;4.386;2022-11-15T13:01:56;4.80;;;1.20;;
22525;SDS011;11429;50.842;4.386;2022-11-15T13:09:58;3.33;;;0.80;;
22525;SDS011;11429;50.842;4.386;2022-11-15T13:14:38;4.38;;;1.20;;
22525;SDS011;11429;50.842;4.386;2022-11-15T13:19:44;4.07;;;0.90;;
22525;SDS011;11429;50.842;4.386;2022-11-15T13:22:13;3.35;;;0.82;;
22525;SDS011;11429;50.842;4.386;2022-11-15T13:27:27;2.97;;;0.90;;
22525;SDS011;11429;50.842;4.386;2022-11-15T13:29:54;5.72;;;1.13;;
22525;SDS011;11429;50.842;4.386;2022-11-15T13:32:20;4.68;;;1.10;;
22525;SDS011;11429;50.842;4.386;2022-11-15T13:34:47;5.47;;;1.15;;
22525;SDS011;11429;50.842;4.386;2022-11-15T13:39:46;6.85;;;1.38;;
22525;SDS011;11429;50.842;4.386;2022-11-15T13:42:15;3.72;;;1.00;;
22525;SDS011;11429;50.842;4.386;2022-11-15T13:44:59;3.90;;;1.10;;
22525;SDS011;11429;50.842;4.386;2022-11-15T13:47:27;7.40;;;1.80;;
22525;SDS011;11429;50.842;4.386;2022-11-15T13:49:57;2.63;;;0.90;;
22525;SDS011;11429;50.842;4.386;2022-11-15T13:52:26;4.45;;;1.38;;
22525;SDS011;11429;50.842;4.386;2022-11-15T14:00:30;2.60;;;1.10;;
22525;SDS011;11429;50.842;4.386;2022-11-15T14:08:37;3.83;;;1.13;;
22525;SDS011;11429;50.842;4.386;2022-11-15T14:13:38;3.95;;;1.08;;
22525;SDS011;11429;50.842;4.386;2022-11-15T14:18:43;3.08;;;1.58;;
22525;SDS011;11429;50.842;4.386;2022-11-15T14:21:11;2.92;;;1.35;;
22525;SDS011;11429;50.842;4.386;2022-11-15T14:23:36;4.40;;;1.15;;
22525;SDS011;11429;50.842;4.386;2022-11-15T14:26:02;4.43;;;1.67;;
22525;SDS011;11429;50.842;4.386;2022-11-15T14:28:29;5.70;;;2.00;;
22525;SDS011;11429;50.842;4.386;2022-11-15T14:30:58;6.20;;;1.65;;
22525;SDS011;11429;50.842;4.386;2022-11-15T14:33:30;3.22;;;1.10;;
22525;SDS011;11429;50.842;4.386;2022-11-15T14:36:03;2.97;;;1.02;;
22525;SDS011;11429;50.842;4.386;2022-11-15T14:38:31;4.20;;;1.20;;
22525;SDS011;11429;50.842;4.386;2022-11-15T14:40:57;2.72;;;1.20;;
22525;SDS011;11429;50.842;4.386;2022-11-15T14:43:23;4.38;;;1.33;;
22525;SDS011;11429;50.842;4.386;2022-11-15T14:45:49;4.00;;;1.10;;
22525;SDS011;11429;50.842;4.386;2022-11-15T14:48:15;3.80;;;1.10;;
22525;SDS011;11429;50.842;4.386;2022-11-15T14:50:40;4.25;;;1.40;;
22525;SDS011;11429;50.842;4.386;2022-11-15T14:53:06;3.70;;;1.63;;
22525;SDS011;11429;50.842;4.386;2022-11-15T14:55:36;3.20;;;1.50;;
22525;SDS011;11429;50.842;4.386;2022-11-15T14:58:02;3.85;;;1.23;;
22525;SDS011;11429;50.842;4.386;2022-11-15T15:00:29;3.47;;;1.40;;
22525;SDS011;11429;50.842;4.386;2022-11-15T15:02:56;2.45;;;1.38;;
22525;SDS011;11429;50.842;4.386;2022-11-15T15:05:23;3.08;;;1.40;;
22525;SDS011;11429;50.842;4.386;2022-11-15T15:07:51;4.30;;;1.52;;
22525;SDS011;11429;50.842;4.386;2022-11-15T15:10:20;3.05;;;1.67;;
22525;SDS011;11429;50.842;4.386;2022-11-15T15:12:46;3.58;;;1.45;;
22525;SDS011;11429;50.842;4.386;2022-11-15T15:15:16;2.40;;;1.65;;
22525;SDS011;11429;50.842;4.386;2022-11-15T15:17:47;4.95;;;1.83;;
22525;SDS011;11429;50.842;4.386;2022-11-15T15:20:13;4.60;;;1.80;;
22525;SDS011;11429;50.842;4.386;2022-11-15T15:22:39;4.10;;;1.92;;
22525;SDS011;11429;50.842;4.386;2022-11-15T15:25:25;3.65;;;1.73;;
22525;SDS011;11429;50.842;4.386;2022-11-15T15:27:57;3.38;;;1.70;;
22525;SDS011;11429;50.842;4.386;2022-11-15T15:30:23;4.78;;;1.70;;
22525;SDS011;11429;50.842;4.386;2022-11-15T15:32:49;4.70;;;2.20;;
22525;SDS011;11429;50.842;4.386;2022-11-15T15:35:16;3.55;;;1.80;;
22525;SDS011;11429;50.842;4.386;2022-11-15T15:37:43;2.47;;;1.63;;
22525;SDS011;11429;50.842;4.386;2022-11-15T15:40:12;5.43;;;2.35;;
22525;SDS011;11429;50.842;4.386;2022-11-15T15:42:40;3.78;;;2.40;;
22525;SDS011;11429;50.842;4.386;2022-11-15T15:45:07;6.03;;;2.30;;
22525;SDS011;11429;50.842;4.386;2022-11-15T15:47:34;2.85;;;1.85;;
22525;SDS011;11429;50.842;4.386;2022-11-15T15:49:59;3.20;;;2.03;;
22525;SDS011;11429;50.842;4.386;2022-11-15T15:52:25;4.10;;;2.17;;
22525;SDS011;11429;50.842;4.386;2022-11-15T15:54:51;3.47;;;1.90;;
22525;SDS011;11429;50.842;4.386;2022-11-15T15:57:17;5.38;;;2.38;;
22525;SDS011;11429;50.842;4.386;2022-11-15T15:59:43;5.80;;;1.77;;
22525;SDS011;11429;50.842;4.386;2022-11-15T16:02:12;5.88;;;2.17;;
22525;SDS011;11429;50.842;4.386;2022-11-15T16:04:38;3.90;;;1.95;;
22525;SDS011;11429;50.842;4.386;2022-11-15T16:07:04;5.22;;;2.60;;
22525;SDS011;11429;50.842;4.386;2022-11-15T16:09:30;5.18;;;2.20;;
22525;SDS011;11429;50.842;4.386;2022-11-15T16:12:18;4.90;;;2.38;;
22525;SDS011;11429;50.842;4.386;2022-11-15T16:14:44;4.05;;;2.35;;
22525;SDS011;11429;50.842;4.386;2022-11-15T16:17:20;5.30;;;2.15;;
22525;SDS011;11429;50.842;4.386;2022-11-15T16:19:48;4.53;;;2.42;;
22525;SDS011;11429;50.842;4.386;2022-11-15T16:22:13;5.80;;;2.22;;
22525;SDS011;11429;50.842;4.386;2022-11-15T16:24:39;4.82;;;2.75;;
22525;SDS011;11429;50.842;4.386;2022-11-15T16:27:05;5.60;;;2.60;;
22525;SDS011;11429;50.842;4.386;2022-11-15T16:29:30;4.00;;;2.10;;
22525;SDS011;11429;50.842;4.386;2022-11-15T16:31:56;3.72;;;2.35;;
22525;SDS011;11429;50.842;4.386;2022-11-15T16:34:22;4.97;;;2.70;;
22525;SDS011;11429;50.842;4.386;2022-11-15T16:36:47;6.07;;;2.60;;
22525;SDS011;11429;50.842;4.386;2022-11-15T16:39:20;3.50;;;2.45;;
22525;SDS011;11429;50.842;4.386;2022-11-15T16:41:47;3.90;;;2.80;;
22525;SDS011;11429;50.842;4.386;2022-11-15T16:44:13;4.65;;;2.83;;
22525;SDS011;11429;50.842;4.386;2022-11-15T16:46:42;4.03;;;2.45;;
22525;SDS011;11429;50.842;4.386;2022-11-15T16:49:14;4.80;;;2.40;;
22525;SDS011;11429;50.842;4.386;2022-11-15T16:51:40;3.22;;;2.40;;
22525;SDS011;11429;50.842;4.386;2022-11-15T16:54:09;4.20;;;2.75;;
22525;SDS011;11429;50.842;4.386;2022-11-15T16:56:34;4.30;;;2.45;;
22525;SDS011;11429;50.842;4.386;2022-11-15T16:59:00;4.30;;;2.80;;
22525;SDS011;11429;50.842;4.386;2022-11-15T17:01:27;5.15;;;2.65;;
22525;SDS011;11429;50.842;4.386;2022-11-15T17:03:54;5.22;;;2.70;;